sensor_id;sensor_type;location;lat;lon;timestamp;temperature;humidity
15328;DHT22;7764;51.430;6.840;2023-03-11T00:00:35;3.00;99.90
15328;DHT22;7764;51.430;6.840;2023-03-11T00:03:04;3.00;99.90
15328;DHT22;7764;51.430;6.840;2023-03-11T00:05:33;3.00;99.90
15328;DHT22;7764;51.430;6.840;2023-03-11T00:08:05;3.00;99.90
15328;DHT22;7764;51.430;6.840;2023-03-11T00:10:35;3.00;99.90
15328;DHT22;7764;51.430;6.840;2023-03-11T00:13:03;3.10;99.90
15328;DHT22;7764;51.430;6.840;2023-03-11T00:15:31;3.00;99.90
15328;DHT22;7764;51.430;6.840;2023-03-11T00:17:58;3.00;99.90
15328;DHT22;7764;51.430;6.840;2023-03-11T00:20:27;3.10;99.90
15328;DHT22;7764;51.430;6.840;2023-03-11T00:22:54;3.10;99.90
15328;DHT22;7764;51.430;6.840;2023-03-11T00:25:25;3.00;99.90
15328;DHT22;7764;51.430;6.840;2023-03-11T00:27:53;3.10;99.90
15328;DHT22;7764;51.430;6.840;2023-03-11T00:30:21;3.10;99.90
15328;DHT22;7764;51.430;6.840;2023-03-11T00:32:48;3.10;99.90
15328;DHT22;7764;51.430;6.840;2023-03-11T00:35:17;3.10;99.90
15328;DHT22;7764;51.430;6.840;2023-03-11T00:37:46;3.10;99.90
15328;DHT22;7764;51.430;6.840;2023-03-11T00:40:15;3.10;99.90
15328;DHT22;7764;51.430;6.840;2023-03-11T00:42:44;3.10;99.90
15328;DHT22;7764;51.430;6.840;2023-03-11T00:45:11;3.10;99.90
15328;DHT22;7764;51.430;6.840;2023-03-11T00:47:38;3.10;99.90
15328;DHT22;7764;51.430;6.840;2023-03-11T00:50:06;3.10;99.90
15328;DHT22;7764;51.430;6.840;2023-03-11T00:52:34;3.10;99.90
15328;DHT22;7764;51.430;6.840;2023-03-11T00:55:01;3.00;99.90
15328;DHT22;7764;51.430;6.840;2023-03-11T00:57:27;3.10;99.90
15328;DHT22;7764;51.430;6.840;2023-03-11T00:59:56;3.10;99.90
15328;DHT22;7764;51.430;6.840;2023-03-11T01:02:24;3.10;99.90
15328;DHT22;7764;51.430;6.840;2023-03-11T01:04:52;3.10;99.90
15328;DHT22;7764;51.430;6.840;2023-03-11T01:07:20;3.10;99.90
15328;DHT22;7764;51.430;6.840;2023-03-11T01:09:47;3.10;99.90
15328;DHT22;7764;51.430;6.840;2023-03-11T01:12:14;3.20;99.90
15328;DHT22;7764;51.430;6.840;2023-03-11T01:14:40;3.20;99.90
15328;DHT22;7764;51.430;6.840;2023-03-11T01:17:09;3.10;99.90
15328;DHT22;7764;51.430;6.840;2023-03-11T01:19:36;3.10;99.90
15328;DHT22;7764;51.430;6.840;2023-03-11T01:22:03;3.10;99.90
15328;DHT22;7764;51.430;6.840;2023-03-11T01:24:30;3.10;99.90
15328;DHT22;7764;51.430;6.840;2023-03-11T01:26:57;3.10;99.90
15328;DHT22;7764;51.430;6.840;2023-03-11T01:29:24;3.20;99.90
15328;DHT22;7764;51.430;6.840;2023-03-11T01:31:51;3.20;99.90
15328;DHT22;7764;51.430;6.840;2023-03-11T01:34:19;3.20;99.90
15328;DHT22;7764;51.430;6.840;2023-03-11T01:36:45;3.20;99.90
15328;DHT22;7764;51.430;6.840;2023-03-11T01:39:12;3.20;99.90
15328;DHT22;7764;51.430;6.840;2023-03-11T01:41:39;3.20;99.90
15328;DHT22;7764;51.430;6.840;2023-03-11T01:44:06;3.30;99.90
15328;DHT22;7764;51.430;6.840;2023-03-11T01:46:36;3.20;99.90
15328;DHT22;7764;51.430;6.840;2023-03-11T01:49:04;3.20;99.90
15328;DHT22;7764;51.430;6.840;2023-03-11T01:51:36;3.10;99.90
15328;DHT22;7764;51.430;6.840;2023-03-11T01:54:06;3.20;99.90
15328;DHT22;7764;51.430;6.840;2023-03-11T01:56:35;3.10;99.90
15328;DHT22;7764;51.430;6.840;2023-03-11T01:59:03;3.10;99.90
15328;DHT22;7764;51.430;6.840;2023-03-11T02:01:32;3.10;99.90
15328;DHT22;7764;51.430;6.840;2023-03-11T02:03:59;3.10;99.90
15328;DHT22;7764;51.430;6.840;2023-03-11T02:06:29;3.00;99.90
15328;DHT22;7764;51.430;6.840;2023-03-11T02:08:59;3.00;99.90
15328;DHT22;7764;51.430;6.840;2023-03-11T02:11:29;3.00;99.90
15328;DHT22;7764;51.430;6.840;2023-03-11T02:14:00;3.00;99.90
15328;DHT22;7764;51.430;6.840;2023-03-11T02:16:28;3.00;99.90
15328;DHT22;7764;51.430;6.840;2023-03-11T02:18:55;3.00;99.90
15328;DHT22;7764;51.430;6.840;2023-03-11T02:21:24;3.00;99.90
15328;DHT22;7764;51.430;6.840;2023-03-11T02:23:58;2.90;99.90
15328;DHT22;7764;51.430;6.840;2023-03-11T02:26:34;2.80;99.90
15328;DHT22;7764;51.430;6.840;2023-03-11T02:29:06;2.70;99.90
15328;DHT22;7764;51.430;6.840;2023-03-11T02:31:36;2.70;99.90
15328;DHT22;7764;51.430;6.840;2023-03-11T02:34:05;2.70;99.90
15328;DHT22;7764;51.430;6.840;2023-03-11T02:36:34;2.60;99.90
15328;DHT22;7764;51.430;6.840;2023-03-11T02:39:02;2.60;99.90
15328;DHT22;7764;51.430;6.840;2023-03-11T02:41:30;2.60;99.90
15328;DHT22;7764;51.430;6.840;2023-03-11T02:43:58;2.60;99.90
15328;DHT22;7764;51.430;6.840;2023-03-11T02:46:27;2.50;99.90
15328;DHT22;7764;51.430;6.840;2023-03-11T02:48:55;2.50;99.90
15328;DHT22;7764;51.430;6.840;2023-03-11T02:51:22;2.50;99.90
15328;DHT22;7764;51.430;6.840;2023-03-11T02:53:51;2.50;99.90
15328;DHT22;7764;51.430;6.840;2023-03-11T02:56:19;2.40;99.90
15328;DHT22;7764;51.430;6.840;2023-03-11T02:58:46;2.40;99.90
15328;DHT22;7764;51.430;6.840;2023-03-11T03:01:13;2.40;99.90
15328;DHT22;7764;51.430;6.840;2023-03-11T03:03:42;2.40;99.90
15328;DHT22;7764;51.430;6.840;2023-03-11T03:06:09;2.40;99.90
15328;DHT22;7764;51.430;6.840;2023-03-11T03:08:36;2.40;99.90
15328;DHT22;7764;51.430;6.840;2023-03-11T03:11:03;2.30;99.90
15328;DHT22;7764;51.430;6.840;2023-03-11T03:13:30;2.30;99.90
15328;DHT22;7764;51.430;6.840;2023-03-11T03:15:57;2.30;99.90
15328;DHT22;7764;51.430;6.840;2023-03-11T03:18:24;2.30;99.90
15328;DHT22;7764;51.430;6.840;2023-03-11T03:20:52;2.30;99.90
15328;DHT22;7764;51.430;6.840;2023-03-11T03:23:20;2.30;99.90
15328;DHT22;7764;51.430;6.840;2023-03-11T03:25:47;2.30;99.90
15328;DHT22;7764;51.430;6.840;2023-03-11T03:28:14;2.30;99.90
15328;DHT22;7764;51.430;6.840;2023-03-11T03:30:41;2.30;99.90
15328;DHT22;7764;51.430;6.840;2023-03-11T03:33:08;2.40;99.90
15328;DHT22;7764;51.430;6.840;2023-03-11T03:35:34;2.40;99.90
15328;DHT22;7764;51.430;6.840;2023-03-11T03:38:03;2.40;99.90
15328;DHT22;7764;51.430;6.840;2023-03-11T03:40:29;2.50;99.90
15328;DHT22;7764;51.430;6.840;2023-03-11T03:42:56;2.40;99.90
15328;DHT22;7764;51.430;6.840;2023-03-11T03:45:23;2.40;99.90
15328;DHT22;7764;51.430;6.840;2023-03-11T03:47:50;2.40;99.90
15328;DHT22;7764;51.430;6.840;2023-03-11T03:50:17;2.40;99.90
15328;DHT22;7764;51.430;6.840;2023-03-11T03:52:44;2.40;99.90
15328;DHT22;7764;51.430;6.840;2023-03-11T03:55:12;2.50;99.90
15328;DHT22;7764;51.430;6.840;2023-03-11T03:57:39;2.40;99.90
15328;DHT22;7764;51.430;6.840;2023-03-11T04:00:07;2.40;99.90
15328;DHT22;7764;51.430;6.840;2023-03-11T04:02:34;2.40;99.90
15328;DHT22;7764;51.430;6.840;2023-03-11T04:05:01;2.40;99.90
15328;DHT22;7764;51.430;6.840;2023-03-11T04:07:28;2.40;99.90
15328;DHT22;7764;51.430;6.840;2023-03-11T04:09:55;2.40;99.90
15328;DHT22;7764;51.430;6.840;2023-03-11T04:12:23;2.30;99.90
15328;DHT22;7764;51.430;6.840;2023-03-11T04:14:50;2.20;99.90
15328;DHT22;7764;51.430;6.840;2023-03-11T04:17:17;2.20;99.90
15328;DHT22;7764;51.430;6.840;2023-03-11T04:19:44;2.10;99.90
15328;DHT22;7764;51.430;6.840;2023-03-11T04:22:11;2.20;99.90
15328;DHT22;7764;51.430;6.840;2023-03-11T04:24:38;2.20;99.90
15328;DHT22;7764;51.430;6.840;2023-03-11T04:27:05;2.10;99.90
15328;DHT22;7764;51.430;6.840;2023-03-11T04:29:33;2.10;99.90
15328;DHT22;7764;51.430;6.840;2023-03-11T04:32:00;2.10;99.90
15328;DHT22;7764;51.430;6.840;2023-03-11T04:34:27;2.10;99.90
15328;DHT22;7764;51.430;6.840;2023-03-11T04:36:54;2.00;99.90
15328;DHT22;7764;51.430;6.840;2023-03-11T04:39:21;2.00;99.90
15328;DHT22;7764;51.430;6.840;2023-03-11T04:41:47;2.00;99.90
15328;DHT22;7764;51.430;6.840;2023-03-11T04:44:14;2.00;99.90
15328;DHT22;7764;51.430;6.840;2023-03-11T04:46:42;2.00;99.90
15328;DHT22;7764;51.430;6.840;2023-03-11T04:49:09;2.00;99.90
15328;DHT22;7764;51.430;6.840;2023-03-11T04:51:36;2.00;99.90
15328;DHT22;7764;51.430;6.840;2023-03-11T04:54:03;1.90;99.90
15328;DHT22;7764;51.430;6.840;2023-03-11T04:56:30;1.90;99.90
15328;DHT22;7764;51.430;6.840;2023-03-11T04:58:57;1.80;99.90
15328;DHT22;7764;51.430;6.840;2023-03-11T05:01:24;1.90;99.90
15328;DHT22;7764;51.430;6.840;2023-03-11T05:03:52;1.80;99.90
15328;DHT22;7764;51.430;6.840;2023-03-11T05:06:19;1.90;99.90
15328;DHT22;7764;51.430;6.840;2023-03-11T05:08:46;1.90;99.90
15328;DHT22;7764;51.430;6.840;2023-03-11T05:11:15;1.90;99.90
15328;DHT22;7764;51.430;6.840;2023-03-11T05:13:42;2.00;99.90
15328;DHT22;7764;51.430;6.840;2023-03-11T05:16:09;2.00;99.90
15328;DHT22;7764;51.430;6.840;2023-03-11T05:18:36;2.00;99.90
15328;DHT22;7764;51.430;6.840;2023-03-11T05:21:04;2.10;99.90
15328;DHT22;7764;51.430;6.840;2023-03-11T05:23:31;2.10;99.90
15328;DHT22;7764;51.430;6.840;2023-03-11T05:25:58;2.10;99.90
15328;DHT22;7764;51.430;6.840;2023-03-11T05:28:25;2.10;99.90
15328;DHT22;7764;51.430;6.840;2023-03-11T05:30:52;2.00;99.90
15328;DHT22;7764;51.430;6.840;2023-03-11T05:33:19;2.00;99.90
15328;DHT22;7764;51.430;6.840;2023-03-11T05:35:46;2.00;99.90
15328;DHT22;7764;51.430;6.840;2023-03-11T05:38:14;2.00;99.90
15328;DHT22;7764;51.430;6.840;2023-03-11T05:40:40;2.00;99.90
15328;DHT22;7764;51.430;6.840;2023-03-11T05:43:07;2.00;99.90
15328;DHT22;7764;51.430;6.840;2023-03-11T05:45:34;2.10;99.90
15328;DHT22;7764;51.430;6.840;2023-03-11T05:48:01;2.10;99.90
15328;DHT22;7764;51.430;6.840;2023-03-11T05:50:28;2.10;99.90
15328;DHT22;7764;51.430;6.840;2023-03-11T05:52:55;2.10;99.90
15328;DHT22;7764;51.430;6.840;2023-03-11T05:55:23;2.10;99.90
15328;DHT22;7764;51.430;6.840;2023-03-11T05:57:50;2.10;99.90
15328;DHT22;7764;51.430;6.840;2023-03-11T06:00:18;2.10;99.90
15328;DHT22;7764;51.430;6.840;2023-03-11T06:02:45;2.00;99.90
15328;DHT22;7764;51.430;6.840;2023-03-11T06:05:12;2.00;99.90
15328;DHT22;7764;51.430;6.840;2023-03-11T06:07:39;2.00;99.90
15328;DHT22;7764;51.430;6.840;2023-03-11T06:10:06;2.10;99.90
15328;DHT22;7764;51.430;6.840;2023-03-11T06:12:36;2.00;99.90
15328;DHT22;7764;51.430;6.840;2023-03-11T06:15:05;2.00;99.90
15328;DHT22;7764;51.430;6.840;2023-03-11T06:17:32;2.00;99.90
15328;DHT22;7764;51.430;6.840;2023-03-11T06:19:59;2.00;99.90
15328;DHT22;7764;51.430;6.840;2023-03-11T06:22:25;2.00;99.90
15328;DHT22;7764;51.430;6.840;2023-03-11T06:24:52;2.00;99.90
15328;DHT22;7764;51.430;6.840;2023-03-11T06:27:19;2.00;99.90
15328;DHT22;7764;51.430;6.840;2023-03-11T06:29:51;2.00;99.90
15328;DHT22;7764;51.430;6.840;2023-03-11T06:32:17;2.00;99.90
15328;DHT22;7764;51.430;6.840;2023-03-11T06:34:50;2.00;99.90
15328;DHT22;7764;51.430;6.840;2023-03-11T06:37:17;1.90;99.90
15328;DHT22;7764;51.430;6.840;2023-03-11T06:39:45;2.00;99.90
15328;DHT22;7764;51.430;6.840;2023-03-11T06:42:12;1.90;99.90
15328;DHT22;7764;51.430;6.840;2023-03-11T06:44:41;2.00;99.90
15328;DHT22;7764;51.430;6.840;2023-03-11T06:47:10;2.00;99.90
15328;DHT22;7764;51.430;6.840;2023-03-11T06:49:37;2.00;99.90
15328;DHT22;7764;51.430;6.840;2023-03-11T06:52:05;2.00;99.90
15328;DHT22;7764;51.430;6.840;2023-03-11T06:54:32;2.10;99.90
15328;DHT22;7764;51.430;6.840;2023-03-11T06:56:59;2.10;99.90
15328;DHT22;7764;51.430;6.840;2023-03-11T06:59:26;2.00;99.90
15328;DHT22;7764;51.430;6.840;2023-03-11T07:01:53;2.10;99.90
15328;DHT22;7764;51.430;6.840;2023-03-11T07:04:22;2.50;99.90
15328;DHT22;7764;51.430;6.840;2023-03-11T07:06:48;2.80;99.90
15328;DHT22;7764;51.430;6.840;2023-03-11T07:09:15;3.20;99.90
15328;DHT22;7764;51.430;6.840;2023-03-11T07:11:43;3.40;99.90
15328;DHT22;7764;51.430;6.840;2023-03-11T07:14:10;3.50;99.90
15328;DHT22;7764;51.430;6.840;2023-03-11T07:16:38;3.60;99.90
15328;DHT22;7764;51.430;6.840;2023-03-11T07:19:05;3.70;99.90
15328;DHT22;7764;51.430;6.840;2023-03-11T07:21:33;3.60;99.90
15328;DHT22;7764;51.430;6.840;2023-03-11T07:24:01;3.70;99.90
15328;DHT22;7764;51.430;6.840;2023-03-11T07:26:31;3.90;99.90
15328;DHT22;7764;51.430;6.840;2023-03-11T07:28:58;3.80;99.90
15328;DHT22;7764;51.430;6.840;2023-03-11T07:31:28;4.00;99.90
15328;DHT22;7764;51.430;6.840;2023-03-11T07:33:58;4.00;99.90
15328;DHT22;7764;51.430;6.840;2023-03-11T07:36:26;4.10;99.90
15328;DHT22;7764;51.430;6.840;2023-03-11T07:38:59;4.20;99.90
15328;DHT22;7764;51.430;6.840;2023-03-11T07:41:29;4.20;99.90
15328;DHT22;7764;51.430;6.840;2023-03-11T07:43:58;4.10;99.90
15328;DHT22;7764;51.430;6.840;2023-03-11T07:46:27;4.30;99.90
15328;DHT22;7764;51.430;6.840;2023-03-11T07:48:55;4.20;99.90
15328;DHT22;7764;51.430;6.840;2023-03-11T07:51:23;4.30;99.90
15328;DHT22;7764;51.430;6.840;2023-03-11T07:53:52;4.30;99.90
15328;DHT22;7764;51.430;6.840;2023-03-11T07:56:22;4.50;99.90
15328;DHT22;7764;51.430;6.840;2023-03-11T07:58:50;4.50;99.90
15328;DHT22;7764;51.430;6.840;2023-03-11T08:01:20;4.40;99.90
15328;DHT22;7764;51.430;6.840;2023-03-11T08:03:48;4.50;99.90
15328;DHT22;7764;51.430;6.840;2023-03-11T08:06:17;4.50;99.90
15328;DHT22;7764;51.430;6.840;2023-03-11T08:08:45;4.50;99.90
15328;DHT22;7764;51.430;6.840;2023-03-11T08:11:15;4.60;99.90
15328;DHT22;7764;51.430;6.840;2023-03-11T08:13:45;4.60;99.90
15328;DHT22;7764;51.430;6.840;2023-03-11T08:16:14;4.70;99.90
15328;DHT22;7764;51.430;6.840;2023-03-11T08:18:42;4.80;99.90
15328;DHT22;7764;51.430;6.840;2023-03-11T08:21:12;4.70;99.90
15328;DHT22;7764;51.430;6.840;2023-03-11T08:23:39;4.80;99.90
15328;DHT22;7764;51.430;6.840;2023-03-11T08:26:09;4.80;99.90
15328;DHT22;7764;51.430;6.840;2023-03-11T08:28:36;4.90;99.90
15328;DHT22;7764;51.430;6.840;2023-03-11T08:31:10;4.90;99.90
15328;DHT22;7764;51.430;6.840;2023-03-11T08:33:38;5.00;99.90
15328;DHT22;7764;51.430;6.840;2023-03-11T08:36:05;5.00;99.90
15328;DHT22;7764;51.430;6.840;2023-03-11T08:38:32;5.00;99.90
15328;DHT22;7764;51.430;6.840;2023-03-11T08:40:59;5.00;99.90
15328;DHT22;7764;51.430;6.840;2023-03-11T08:43:26;5.20;99.90
15328;DHT22;7764;51.430;6.840;2023-03-11T08:45:53;5.30;99.90
15328;DHT22;7764;51.430;6.840;2023-03-11T08:48:21;5.30;99.90
15328;DHT22;7764;51.430;6.840;2023-03-11T08:50:50;5.40;99.90
15328;DHT22;7764;51.430;6.840;2023-03-11T08:53:17;5.60;99.90
15328;DHT22;7764;51.430;6.840;2023-03-11T08:55:44;5.60;99.90
15328;DHT22;7764;51.430;6.840;2023-03-11T08:58:11;5.40;99.90
15328;DHT22;7764;51.430;6.840;2023-03-11T09:00:38;5.30;99.90
15328;DHT22;7764;51.430;6.840;2023-03-11T09:03:05;5.30;99.90
15328;DHT22;7764;51.430;6.840;2023-03-11T09:05:35;5.40;99.90
15328;DHT22;7764;51.430;6.840;2023-03-11T09:08:02;5.60;99.90
15328;DHT22;7764;51.430;6.840;2023-03-11T09:10:31;5.60;99.90
15328;DHT22;7764;51.430;6.840;2023-03-11T09:12:58;5.60;99.90
15328;DHT22;7764;51.430;6.840;2023-03-11T09:15:25;5.40;99.90
15328;DHT22;7764;51.430;6.840;2023-03-11T09:17:52;5.30;99.90
15328;DHT22;7764;51.430;6.840;2023-03-11T09:20:20;5.20;99.90
15328;DHT22;7764;51.430;6.840;2023-03-11T09:22:48;5.20;99.90
15328;DHT22;7764;51.430;6.840;2023-03-11T09:25:15;5.30;99.90
15328;DHT22;7764;51.430;6.840;2023-03-11T09:27:42;5.30;99.90
15328;DHT22;7764;51.430;6.840;2023-03-11T09:30:10;5.50;98.40
15328;DHT22;7764;51.430;6.840;2023-03-11T09:32:37;5.70;99.90
15328;DHT22;7764;51.430;6.840;2023-03-11T09:35:05;5.60;93.80
15328;DHT22;7764;51.430;6.840;2023-03-11T09:37:34;5.80;93.30
15328;DHT22;7764;51.430;6.840;2023-03-11T09:40:15;6.00;93.10
15328;DHT22;7764;51.430;6.840;2023-03-11T09:42:51;6.30;94.60
15328;DHT22;7764;51.430;6.840;2023-03-11T09:45:22;6.20;93.10
15328;DHT22;7764;51.430;6.840;2023-03-11T09:48:03;6.30;90.30
15328;DHT22;7764;51.430;6.840;2023-03-11T09:50:34;6.40;90.40
15328;DHT22;7764;51.430;6.840;2023-03-11T09:53:15;6.40;91.60
15328;DHT22;7764;51.430;6.840;2023-03-11T09:55:47;6.30;92.20
15328;DHT22;7764;51.430;6.840;2023-03-11T09:58:20;6.20;92.00
15328;DHT22;7764;51.430;6.840;2023-03-11T10:00:49;6.20;89.30
15328;DHT22;7764;51.430;6.840;2023-03-11T10:03:28;6.10;90.40
15328;DHT22;7764;51.430;6.840;2023-03-11T10:06:02;6.20;91.10
15328;DHT22;7764;51.430;6.840;2023-03-11T10:08:34;6.10;90.60
15328;DHT22;7764;51.430;6.840;2023-03-11T10:11:18;6.10;92.30
15328;DHT22;7764;51.430;6.840;2023-03-11T10:13:53;5.90;91.90
15328;DHT22;7764;51.430;6.840;2023-03-11T10:16:26;6.10;91.70
15328;DHT22;7764;51.430;6.840;2023-03-11T10:19:02;6.30;91.30
15328;DHT22;7764;51.430;6.840;2023-03-11T10:21:43;6.20;91.60
15328;DHT22;7764;51.430;6.840;2023-03-11T10:24:34;6.40;92.40
15328;DHT22;7764;51.430;6.840;2023-03-11T10:27:09;6.40;91.40
15328;DHT22;7764;51.430;6.840;2023-03-11T10:29:44;6.40;91.10
15328;DHT22;7764;51.430;6.840;2023-03-11T10:32:17;6.50;90.90
15328;DHT22;7764;51.430;6.840;2023-03-11T10:34:50;6.50;90.90
15328;DHT22;7764;51.430;6.840;2023-03-11T10:37:22;6.70;90.70
15328;DHT22;7764;51.430;6.840;2023-03-11T10:39:50;6.70;90.30
15328;DHT22;7764;51.430;6.840;2023-03-11T10:42:21;6.80;90.70
15328;DHT22;7764;51.430;6.840;2023-03-11T10:44:49;6.90;91.20
15328;DHT22;7764;51.430;6.840;2023-03-11T10:47:17;6.90;90.00
15328;DHT22;7764;51.430;6.840;2023-03-11T10:49:44;6.90;88.90
15328;DHT22;7764;51.430;6.840;2023-03-11T10:52:12;6.50;90.10
15328;DHT22;7764;51.430;6.840;2023-03-11T10:54:40;6.60;91.90
15328;DHT22;7764;51.430;6.840;2023-03-11T10:57:22;6.70;90.30
15328;DHT22;7764;51.430;6.840;2023-03-11T10:59:51;6.70;88.80
15328;DHT22;7764;51.430;6.840;2023-03-11T11:02:22;6.70;88.50
15328;DHT22;7764;51.430;6.840;2023-03-11T11:05:06;6.70;90.20
15328;DHT22;7764;51.430;6.840;2023-03-11T11:07:35;6.60;89.70
15328;DHT22;7764;51.430;6.840;2023-03-11T11:10:15;6.60;89.10
15328;DHT22;7764;51.430;6.840;2023-03-11T11:12:55;6.80;90.30
15328;DHT22;7764;51.430;6.840;2023-03-11T11:15:26;6.70;89.10
15328;DHT22;7764;51.430;6.840;2023-03-11T11:17:55;6.70;88.80
15328;DHT22;7764;51.430;6.840;2023-03-11T11:20:24;6.70;88.90
15328;DHT22;7764;51.430;6.840;2023-03-11T11:22:53;6.90;89.20
15328;DHT22;7764;51.430;6.840;2023-03-11T11:25:28;6.90;88.20
15328;DHT22;7764;51.430;6.840;2023-03-11T11:27:59;6.90;87.00
15328;DHT22;7764;51.430;6.840;2023-03-11T11:30:27;6.80;85.80
15328;DHT22;7764;51.430;6.840;2023-03-11T11:32:54;6.70;85.90
15328;DHT22;7764;51.430;6.840;2023-03-11T11:35:22;6.90;91.00
15328;DHT22;7764;51.430;6.840;2023-03-11T11:37:51;7.10;89.90
15328;DHT22;7764;51.430;6.840;2023-03-11T11:40:23;7.40;90.60
15328;DHT22;7764;51.430;6.840;2023-03-11T11:42:53;7.30;86.70
15328;DHT22;7764;51.430;6.840;2023-03-11T11:45:31;7.30;87.60
15328;DHT22;7764;51.430;6.840;2023-03-11T11:48:07;7.50;90.30
15328;DHT22;7764;51.430;6.840;2023-03-11T11:50:41;7.60;88.20
15328;DHT22;7764;51.430;6.840;2023-03-11T11:53:18;7.70;87.70
15328;DHT22;7764;51.430;6.840;2023-03-11T11:55:48;7.40;86.70
15328;DHT22;7764;51.430;6.840;2023-03-11T11:58:17;7.50;89.00
15328;DHT22;7764;51.430;6.840;2023-03-11T12:00:57;7.80;88.50
15328;DHT22;7764;51.430;6.840;2023-03-11T12:03:42;7.90;84.60
15328;DHT22;7764;51.430;6.840;2023-03-11T12:06:17;7.80;84.70
15328;DHT22;7764;51.430;6.840;2023-03-11T12:08:55;7.40;82.30
15328;DHT22;7764;51.430;6.840;2023-03-11T12:11:35;7.30;83.10
15328;DHT22;7764;51.430;6.840;2023-03-11T12:14:09;7.30;86.00
15328;DHT22;7764;51.430;6.840;2023-03-11T12:16:41;7.40;87.10
15328;DHT22;7764;51.430;6.840;2023-03-11T12:19:21;7.40;85.70
15328;DHT22;7764;51.430;6.840;2023-03-11T12:22:09;7.40;85.80
15328;DHT22;7764;51.430;6.840;2023-03-11T12:24:56;7.50;85.50
15328;DHT22;7764;51.430;6.840;2023-03-11T12:27:26;7.60;84.20
15328;DHT22;7764;51.430;6.840;2023-03-11T12:29:59;7.50;83.00
15328;DHT22;7764;51.430;6.840;2023-03-11T12:32:32;7.70;82.80
15328;DHT22;7764;51.430;6.840;2023-03-11T12:35:01;7.60;81.40
15328;DHT22;7764;51.430;6.840;2023-03-11T12:37:30;7.50;83.10
15328;DHT22;7764;51.430;6.840;2023-03-11T12:39:58;7.30;80.10
15328;DHT22;7764;51.430;6.840;2023-03-11T12:42:38;7.10;82.30
15328;DHT22;7764;51.430;6.840;2023-03-11T12:45:42;7.30;82.90
15328;DHT22;7764;51.430;6.840;2023-03-11T12:48:33;7.40;81.20
15328;DHT22;7764;51.430;6.840;2023-03-11T12:51:00;7.50;82.10
15328;DHT22;7764;51.430;6.840;2023-03-11T12:53:42;7.80;83.40
15328;DHT22;7764;51.430;6.840;2023-03-11T12:56:19;7.90;81.00
15328;DHT22;7764;51.430;6.840;2023-03-11T12:59:11;7.90;78.40
15328;DHT22;7764;51.430;6.840;2023-03-11T13:01:52;7.90;79.90
15328;DHT22;7764;51.430;6.840;2023-03-11T13:04:39;7.90;77.80
15328;DHT22;7764;51.430;6.840;2023-03-11T13:07:34;7.60;74.70
15328;DHT22;7764;51.430;6.840;2023-03-11T13:10:18;7.50;76.20
15328;DHT22;7764;51.430;6.840;2023-03-11T13:12:47;7.30;74.60
15328;DHT22;7764;51.430;6.840;2023-03-11T13:15:35;7.30;75.20
15328;DHT22;7764;51.430;6.840;2023-03-11T13:18:13;7.50;78.40
15328;DHT22;7764;51.430;6.840;2023-03-11T13:20:48;7.70;79.20
15328;DHT22;7764;51.430;6.840;2023-03-11T13:23:30;7.60;80.40
15328;DHT22;7764;51.430;6.840;2023-03-11T13:26:29;7.30;78.80
15328;DHT22;7764;51.430;6.840;2023-03-11T13:29:26;7.30;79.60
15328;DHT22;7764;51.430;6.840;2023-03-11T13:32:08;7.10;80.40
15328;DHT22;7764;51.430;6.840;2023-03-11T13:34:43;7.00;80.10
15328;DHT22;7764;51.430;6.840;2023-03-11T13:37:20;7.20;80.30
15328;DHT22;7764;51.430;6.840;2023-03-11T13:40:00;7.30;81.00
15328;DHT22;7764;51.430;6.840;2023-03-11T13:42:32;7.40;81.50
15328;DHT22;7764;51.430;6.840;2023-03-11T13:45:01;7.40;80.90
15328;DHT22;7764;51.430;6.840;2023-03-11T13:47:30;7.30;77.40
15328;DHT22;7764;51.430;6.840;2023-03-11T13:50:01;7.30;78.50
15328;DHT22;7764;51.430;6.840;2023-03-11T13:52:33;7.30;77.80
15328;DHT22;7764;51.430;6.840;2023-03-11T13:55:03;7.20;78.10
15328;DHT22;7764;51.430;6.840;2023-03-11T13:57:33;7.20;77.50
15328;DHT22;7764;51.430;6.840;2023-03-11T14:00:06;7.20;78.90
15328;DHT22;7764;51.430;6.840;2023-03-11T14:02:45;7.30;78.10
15328;DHT22;7764;51.430;6.840;2023-03-11T14:05:15;7.30;78.20
15328;DHT22;7764;51.430;6.840;2023-03-11T14:07:44;7.50;79.30
15328;DHT22;7764;51.430;6.840;2023-03-11T14:10:20;7.50;77.70
15328;DHT22;7764;51.430;6.840;2023-03-11T14:12:48;7.30;78.00
15328;DHT22;7764;51.430;6.840;2023-03-11T14:15:18;7.40;79.80
15328;DHT22;7764;51.430;6.840;2023-03-11T14:17:46;7.50;79.40
15328;DHT22;7764;51.430;6.840;2023-03-11T14:20:15;7.50;79.50
15328;DHT22;7764;51.430;6.840;2023-03-11T14:22:48;7.60;79.40
15328;DHT22;7764;51.430;6.840;2023-03-11T14:25:18;7.80;81.00
15328;DHT22;7764;51.430;6.840;2023-03-11T14:27:51;7.60;78.50
15328;DHT22;7764;51.430;6.840;2023-03-11T14:30:24;7.70;81.30
15328;DHT22;7764;51.430;6.840;2023-03-11T14:32:59;7.70;80.40
15328;DHT22;7764;51.430;6.840;2023-03-11T14:35:30;7.60;78.70
15328;DHT22;7764;51.430;6.840;2023-03-11T14:38:19;7.50;79.80
15328;DHT22;7764;51.430;6.840;2023-03-11T14:40:49;7.30;78.90
15328;DHT22;7764;51.430;6.840;2023-03-11T14:43:19;7.50;81.60
15328;DHT22;7764;51.430;6.840;2023-03-11T14:45:47;7.60;81.80
15328;DHT22;7764;51.430;6.840;2023-03-11T14:48:19;7.60;83.40
15328;DHT22;7764;51.430;6.840;2023-03-11T14:50:50;7.60;80.20
15328;DHT22;7764;51.430;6.840;2023-03-11T14:53:23;7.70;79.40
15328;DHT22;7764;51.430;6.840;2023-03-11T14:55:54;7.70;78.60
15328;DHT22;7764;51.430;6.840;2023-03-11T14:58:27;7.70;78.50
15328;DHT22;7764;51.430;6.840;2023-03-11T15:00:59;7.70;80.20
15328;DHT22;7764;51.430;6.840;2023-03-11T15:03:28;7.80;80.10
15328;DHT22;7764;51.430;6.840;2023-03-11T15:05:58;7.90;78.60
15328;DHT22;7764;51.430;6.840;2023-03-11T15:08:33;7.80;79.00
15328;DHT22;7764;51.430;6.840;2023-03-11T15:11:21;7.80;80.90
15328;DHT22;7764;51.430;6.840;2023-03-11T15:13:51;7.90;80.80
15328;DHT22;7764;51.430;6.840;2023-03-11T15:16:24;7.90;79.30
15328;DHT22;7764;51.430;6.840;2023-03-11T15:18:51;7.80;77.50
15328;DHT22;7764;51.430;6.840;2023-03-11T15:21:21;7.70;80.30
15328;DHT22;7764;51.430;6.840;2023-03-11T15:23:52;7.70;79.30
15328;DHT22;7764;51.430;6.840;2023-03-11T15:26:26;7.60;78.70
15328;DHT22;7764;51.430;6.840;2023-03-11T15:28:55;7.70;79.70
15328;DHT22;7764;51.430;6.840;2023-03-11T15:31:31;7.70;77.80
15328;DHT22;7764;51.430;6.840;2023-03-11T15:34:29;7.70;80.80
15328;DHT22;7764;51.430;6.840;2023-03-11T15:37:17;7.70;79.80
15328;DHT22;7764;51.430;6.840;2023-03-11T15:39:48;7.80;80.70
15328;DHT22;7764;51.430;6.840;2023-03-11T15:42:20;7.70;80.70
15328;DHT22;7764;51.430;6.840;2023-03-11T15:45:07;7.70;83.90
15328;DHT22;7764;51.430;6.840;2023-03-11T15:47:35;7.70;81.40
15328;DHT22;7764;51.430;6.840;2023-03-11T15:50:22;7.60;81.40
15328;DHT22;7764;51.430;6.840;2023-03-11T15:52:51;7.60;81.20
15328;DHT22;7764;51.430;6.840;2023-03-11T15:55:20;7.60;81.90
15328;DHT22;7764;51.430;6.840;2023-03-11T15:57:48;7.60;82.10
15328;DHT22;7764;51.430;6.840;2023-03-11T16:00:18;7.50;79.00
15328;DHT22;7764;51.430;6.840;2023-03-11T16:02:47;7.50;82.50
15328;DHT22;7764;51.430;6.840;2023-03-11T16:05:17;7.50;83.30
15328;DHT22;7764;51.430;6.840;2023-03-11T16:07:44;7.50;83.60
15328;DHT22;7764;51.430;6.840;2023-03-11T16:10:13;7.50;82.40
15328;DHT22;7764;51.430;6.840;2023-03-11T16:12:42;7.60;84.80
15328;DHT22;7764;51.430;6.840;2023-03-11T16:15:18;7.50;82.60
15328;DHT22;7764;51.430;6.840;2023-03-11T16:17:45;7.40;83.90
15328;DHT22;7764;51.430;6.840;2023-03-11T16:20:13;7.40;83.30
15328;DHT22;7764;51.430;6.840;2023-03-11T16:22:40;7.40;85.80